Date,TemperatureHighF,TemperatureAvgF,TemperatureLowF,DewpointHighF,DewpointAvgF,DewpointLowF,HumidityHigh,HumidityAvg,HumidityLow,PressureMaxIn,PressureMinIn,WindSpeedMaxMPH,WindSpeedAvgMPH,GustSpeedMaxMPH,PrecipitationSumIn
2014-1-1,69.8,50.1,31.5,53.0,41.8,28.0,91,75,53,30.19,29.92,14,3,21,0.00
2014-1-2,49.7,38.4,27.9,36.0,26.2,23.0,82,63,41,30.45,30.14,9,2,15,0.00
2014-1-3,56.7,39.6,21.2,37.0,22.7,16.0,93,59,21,30.43,30.04,12,3,18,0.00
2014-1-4,70.4,58.2,46.8,48.0,45.3,37.0,82,64,43,30.03,29.70,14,6,22,0.00
2014-1-5,61.3,40.2,29.8,47.0,26.1,13.0,75,58,41,30.44,29.70,16,5,20,0.00
2014-1-6,32.8,25.1,17.5,14.0,10.1,6.0,67,54,37,30.77,30.45,9,2,14,0.00
2014-1-7,48.3,33.2,15.7,28.0,16.8,11.0,86,55,28,30.60,30.29,14,4,20,0.00
2014-1-8,57.3,47.2,39.6,50.0,39.4,-99.9,88,79,65,30.28,30.03,13,-18,22,0.00
2014-1-9,70.1,55.7,49.9,57.0,51.2,47.0,91,85,63,30.12,29.91,9,1,15,0.00
2014-1-10,71.3,62.8,47.9,60.0,54.2,43.0,93,75,46,29.90,29.69,11,3,17,0.03
2014-1-11,70.8,54.7,42.9,45.0,33.9,25.0,90,51,19,30.14,29.80,5,1,6,0.00
2014-1-12,71.8,58.4,42.6,56.0,40.9,27.0,78,53,36,30.06,29.80,18,4,24,0.00
2014-1-13,64.4,54.1,35.9,56.0,32.2,19.0,90,48,22,30.09,29.80,13,2,18,0.00
2014-1-14,71.0,48.9,29.6,33.0,25.7,21.0,71,46,18,30.36,30.00,10,2,18,0.00
2014-1-15,62.3,46.1,31.7,28.0,25.0,21.0,69,46,26,30.44,30.10,6,1,8,0.00
2014-1-16,68.2,51.0,35.0,34.0,28.7,23.0,67,45,25,30.19,30.02,6,1,11,0.00
2014-1-17,61.1,45.6,29.6,34.0,24.8,19.0,85,50,21,30.35,30.19,9,1,10,0.00
2014-1-18,70.6,50.5,30.6,44.0,33.3,22.0,73,53,36,30.20,30.04,11,2,15,0.00
2014-1-19,72.4,52.6,33.5,38.0,32.5,28.0,88,53,20,30.32,30.04,7,1,16,0.00
2014-1-20,80.0,60.8,42.4,44.0,30.6,25.0,69,37,16,30.20,29.81,11,2,18,0.00
2014-1-21,60.9,48.8,36.2,27.0,23.8,22.0,59,39,24,30.40,30.17,8,1,14,0.00
2014-1-22,69.0,48.8,28.0,29.0,23.5,17.0,76,43,14,30.16,29.93,9,2,13,0.00
2014-1-23,48.2,37.2,22.9,37.0,25.2,15.0,85,64,44,30.71,29.99,16,5,19,0.00
2014-1-24,40.9,29.5,22.5,21.0,12.9,6.0,80,51,37,30.72,30.34,7,2,11,0.00
2014-1-25,66.8,45.5,24.4,32.0,24.5,17.0,77,49,23,30.35,29.98,7,1,9,0.00
2014-1-26,80.4,59.5,37.3,42.0,31.4,24.0,70,38,16,29.98,29.62,12,2,18,0.00
2014-1-27,52.2,40.9,31.2,31.0,18.2,6.0,59,41,29,30.24,29.77,13,4,19,0.00
2014-1-28,37.3,29.7,25.0,20.0,9.9,5.0,79,46,30,30.46,30.24,12,3,16,0.00
2014-1-29,48.9,34.1,20.8,18.0,13.9,8.0,68,46,27,30.46,30.18,10,2,13,0.00
2014-1-30,62.2,48.2,34.8,47.0,36.0,13.0,78,64,38,30.18,29.83,19,5,23,0.00
2014-1-31,78.2,62.1,43.2,59.0,49.7,41.0,95,67,35,29.87,29.70,10,3,17,0.00
2014-2-1,75.7,65.2,49.0,59.0,55.4,39.0,83,71,52,29.84,29.66,10,3,13,0.00
2014-2-2,48.5,36.6,31.5,39.0,31.4,28.0,92,82,69,30.25,29.83,12,5,17,0.00
2014-2-3,40.7,35.9,30.9,36.0,31.8,27.0,91,85,79,30.25,29.90,7,2,13,0.00
2014-2-4,67.0,47.1,38.1,44.0,36.9,29.0,95,73,27,30.09,29.82,9,1,15,0.06
2014-2-5,43.5,33.5,26.2,38.0,24.1,16.0,86,69,52,30.47,30.10,10,4,19,0.00
2014-2-6,27.3,24.3,20.6,16.0,14.3,12.0,71,66,59,30.54,30.38,8,3,14,0.00
2014-2-7,33.7,28.0,23.0,31.0,24.3,16.0,92,86,68,30.38,30.21,5,1,7,0.01
2014-2-8,77.1,50.6,30.7,44.0,34.7,29.0,94,62,21,30.21,29.95,8,2,14,0.00
2014-2-9,80.9,58.5,38.1,47.0,39.5,33.0,85,55,21,30.04,29.82,9,2,13,0.00
2014-2-10,46.6,37.0,29.6,41.0,33.3,26.0,93,86,79,30.21,29.98,9,4,14,0.00
2014-2-11,30.8,29.5,28.3,28.0,26.5,25.0,92,88,85,30.31,30.18,8,3,13,0.00
2014-2-12,55.4,39.2,30.2,35.0,29.9,26.0,88,71,45,30.26,30.06,6,1,10,0.00
2014-2-13,73.5,52.2,27.7,40.0,33.4,25.0,92,55,27,30.06,29.83,10,3,15,0.00
2014-2-14,79.0,59.9,42.3,44.0,35.4,29.0,76,44,21,30.04,29.76,13,3,21,0.00
2014-2-15,77.8,56.4,34.1,43.0,34.8,27.0,74,48,25,30.10,29.91,12,3,19,0.00
2014-2-16,81.6,60.5,42.0,60.0,51.0,39.0,94,73,42,29.98,29.83,10,2,16,0.00
2014-2-17,75.8,62.6,45.8,60.0,43.1,28.0,97,59,20,30.08,29.86,17,2,24,0.00
2014-2-18,76.5,58.8,41.5,61.0,47.7,29.0,94,68,50,30.06,29.82,10,2,15,0.00
2014-2-19,75.2,64.9,54.1,63.0,59.1,53.0,97,83,61,29.86,29.62,12,3,17,0.00
2014-2-20,78.8,65.6,48.5,63.0,45.1,27.0,86,55,15,30.04,29.61,10,3,21,0.00
2014-2-21,69.2,51.5,31.7,31.0,26.5,24.0,78,43,19,30.15,29.94,11,2,16,0.00
2014-2-22,75.5,59.1,43.6,56.0,45.0,26.0,89,61,46,29.97,29.77,12,2,16,0.00
2014-2-23,81.2,64.1,50.4,60.0,50.2,40.0,97,66,32,30.01,29.80,8,1,10,0.00
2014-2-24,76.5,60.5,50.1,60.0,50.9,41.0,83,71,57,30.05,29.89,10,2,13,0.00
2014-2-25,64.0,56.4,46.6,63.0,54.7,46.0,96,94,82,30.02,29.88,7,2,10,0.00
2014-2-26,46.5,37.9,30.2,45.0,27.6,21.0,95,68,46,30.26,30.02,11,4,17,0.01
2014-2-27,61.8,43.0,24.4,41.0,29.9,21.0,88,63,39,30.18,29.84,9,3,14,0.00
2014-2-28,85.4,63.0,43.4,49.0,41.2,35.0,89,52,17,29.84,29.68,7,2,13,0.00
2014-3-1,89.0,68.4,45.7,64.0,53.0,41.0,88,62,29,29.90,29.74,16,3,20,0.00
2014-3-2,70.0,41.7,23.5,64.0,37.0,18.0,93,84,76,30.32,29.79,14,4,17,0.00
2014-3-3,42.3,30.3,18.8,20.0,16.4,12.0,79,58,40,30.46,30.25,10,4,16,0.00
2014-3-4,58.3,41.7,29.0,38.0,30.8,19.0,89,67,45,30.26,29.95,7,1,8,0.08
2014-3-5,63.3,49.1,37.9,46.0,40.8,35.0,91,75,53,30.14,29.90,10,1,12,0.00
2014-3-6,61.6,46.4,35.3,40.0,36.3,32.0,90,70,39,30.25,30.02,6,1,18,0.00
2014-3-7,69.4,53.8,37.2,47.0,41.1,33.0,87,65,39,30.02,29.78,14,3,21,0.00
2014-3-8,57.0,50.2,41.9,53.0,42.7,32.0,95,76,60,30.27,29.79,10,3,15,0.01
2014-3-9,64.1,49.2,34.0,42.0,36.4,29.0,82,63,43,30.34,30.14,8,2,12,0.00
2014-3-10,71.4,56.9,41.6,56.0,48.3,38.0,87,74,56,30.18,29.86,7,2,18,0.00
2014-3-11,87.7,68.7,54.6,54.0,49.2,43.0,88,57,21,29.84,29.51,10,2,16,0.00
2014-3-12,70.6,53.8,43.7,41.0,28.9,22.0,63,41,22,30.25,29.69,16,6,24,0.00
2014-3-13,68.5,52.1,31.1,28.0,24.6,22.0,73,39,18,30.32,30.04,10,2,14,0.00
2014-3-14,76.1,62.5,50.2,57.0,48.8,27.0,82,63,40,30.03,29.84,14,5,19,0.00
2014-3-15,75.6,66.1,59.8,61.0,57.8,52.0,93,76,51,29.88,29.59,10,4,17,0.00
2014-3-16,62.3,54.1,46.4,53.0,40.6,31.0,89,62,44,30.05,29.63,18,6,23,0.00
2014-3-17,70.9,52.7,33.8,31.0,26.8,21.0,76,42,17,30.05,29.65,7,2,13,0.00
2014-3-18,89.8,70.3,55.1,42.0,30.3,10.0,43,25,8,29.78,29.55,14,5,24,0.00
2014-3-19,70.5,57.9,47.0,33.0,28.0,9.0,52,34,9,30.15,29.79,13,3,18,0.00
2014-3-20,78.9,58.1,35.6,42.0,34.2,29.0,78,46,20,30.21,29.94,10,2,15,0.00
2014-3-21,82.6,69.4,55.1,58.0,53.0,41.0,83,58,37,29.95,29.71,17,4,23,0.00
2014-3-22,76.5,67.7,58.9,65.0,59.8,52.0,90,77,56,29.97,29.77,5,1,12,0.00
2014-3-23,58.1,48.5,41.0,51.0,41.2,38.0,91,76,61,30.24,29.98,14,4,17,0.37
2014-3-24,68.3,53.7,43.4,52.0,45.7,40.0,90,76,55,30.21,29.98,6,0,9,0.00
2014-3-25,66.6,54.4,40.7,47.0,41.5,35.0,96,66,34,30.30,30.09,7,2,12,0.00
2014-3-26,61.6,57.8,53.0,56.0,47.6,36.0,86,69,52,30.13,29.83,18,8,23,0.00
2014-3-27,88.8,72.6,60.7,64.0,58.7,49.0,87,66,26,29.82,29.61,16,6,19,0.00
2014-3-28,90.6,73.2,60.6,65.0,51.1,31.0,93,56,13,29.96,29.64,14,2,23,0.00
2014-3-29,77.1,62.1,44.8,46.0,37.1,26.0,80,45,16,30.23,29.97,7,2,11,0.00
2014-3-30,80.7,64.5,42.9,51.0,40.1,33.0,74,44,21,30.15,29.87,16,5,24,0.00
2014-3-31,83.9,69.6,58.4,61.0,56.1,50.0,83,64,39,29.90,29.73,13,4,18,0.00
2014-4-1,69.7,65.1,61.2,62.0,60.5,58.0,93,85,73,29.83,29.81,12,2,15,0.00
2014-4-2,81.9,77.1,73.3,68.0,66.9,65.0,82,71,60,29.71,29.58,14,7,18,0.00
2014-4-3,88.0,73.7,66.6,68.0,61.8,-99.9,93,71,40,29.76,29.54,12,-18,18,0.02
2014-4-4,70.3,61.4,49.7,39.0,32.0,23.0,53,35,18,30.09,29.77,12,4,18,0.01
2014-4-5,62.4,56.3,49.8,44.0,38.3,34.0,70,52,35,30.04,29.80,8,2,17,0.00
2014-4-6,60.6,55.0,48.3,50.0,47.4,43.0,90,76,58,29.84,29.69,7,2,10,0.00
2014-4-7,75.2,53.9,40.7,51.0,45.5,39.0,96,78,34,30.04,29.75,20,1,25,0.11
2014-4-8,77.2,61.1,46.7,47.0,38.1,32.0,86,49,20,30.20,30.03,12,3,21,0.00
2014-4-9,87.1,66.5,41.2,50.0,37.0,32.0,81,41,15,30.18,29.94,14,3,17,0.00
2014-4-10,89.3,75.4,60.2,58.0,49.8,45.0,66,43,24,29.99,29.77,15,6,22,0.00
2014-4-11,90.9,73.4,56.5,59.0,56.2,51.0,91,59,26,29.90,29.75,13,4,17,0.00
2014-4-12,84.8,73.8,63.0,65.0,61.2,57.0,82,66,47,29.85,29.66,17,7,21,0.00
2014-4-13,80.8,71.4,65.6,66.0,64.4,62.0,92,79,59,29.73,29.54,16,5,23,0.01
2014-4-14,70.1,55.5,44.0,68.0,41.1,27.0,94,61,40,30.23,29.57,17,7,24,0.01
2014-4-15,66.9,50.6,31.6,27.0,21.4,16.0,69,36,15,30.35,30.05,7,1,10,0.00
2014-4-16,72.8,58.6,42.5,46.0,34.6,25.0,60,42,28,30.06,29.82,17,6,22,0.00
2014-4-17,63.7,60.3,57.0,58.0,54.6,47.0,93,81,60,30.11,29.88,10,3,15,0.00
2014-4-18,78.9,67.1,59.6,59.0,55.2,48.0,94,69,36,30.15,30.00,7,1,10,0.00
2014-4-19,78.3,66.7,50.8,57.0,53.3,48.0,93,64,44,30.09,29.92,10,3,16,0.00
2014-4-20,74.2,67.9,64.0,63.0,59.6,53.0,90,75,63,30.02,29.93,11,4,16,0.02
2014-4-21,89.7,71.0,62.5,65.0,62.6,57.0,95,77,41,29.96,29.79,13,3,17,0.26
2014-4-22,84.4,71.7,58.4,64.0,58.4,54.0,95,66,37,29.99,29.82,6,1,10,0.00
2014-4-23,88.7,74.2,57.8,66.0,61.0,54.0,92,66,43,29.85,29.60,16,5,21,0.00
2014-4-24,92.5,75.7,61.8,66.0,50.9,33.0,85,51,13,29.84,29.64,11,3,19,0.00
2014-4-25,88.4,71.6,48.8,62.0,51.4,42.0,81,51,32,29.93,29.74,13,3,18,0.00
2014-4-26,86.6,75.6,64.1,69.0,64.2,60.0,87,69,49,29.77,29.50,13,5,21,0.00
2014-4-27,95.4,80.8,70.1,70.0,52.7,33.0,86,47,12,29.51,29.35,14,3,18,0.00
2014-4-28,91.5,76.8,60.6,38.0,30.3,25.0,33,20,10,29.65,29.47,13,2,18,0.00
2014-4-29,79.6,68.4,55.7,41.0,31.9,21.0,50,28,13,29.93,29.55,14,4,20,0.00
2014-4-30,72.8,62.2,51.9,36.0,32.7,30.0,49,34,24,30.12,29.93,15,3,17,0.00
2014-5-1,76.2,62.7,46.4,36.0,29.9,25.0,63,33,16,30.15,29.94,9,1,17,0.00
2014-5-2,80.5,66.4,48.5,37.0,32.0,28.0,55,30,16,30.04,29.87,7,2,14,0.00
2014-5-3,92.8,74.1,51.4,43.0,32.8,26.0,53,27,9,29.99,29.86,7,2,14,0.00
2014-5-4,91.7,79.2,66.2,46.0,37.2,31.0,36,23,14,29.98,29.80,15,6,20,0.00
2014-5-5,95.4,79.0,63.6,61.0,55.6,47.0,74,48,24,29.86,29.64,13,6,20,0.00
2014-5-6,95.6,78.6,63.2,65.0,61.3,58.0,84,58,28,29.72,29.54,18,5,23,0.00
2014-5-7,89.5,78.2,70.2,68.0,65.2,62.0,81,66,44,29.71,29.60,20,7,23,0.00
2014-5-8,90.5,78.6,72.6,71.0,67.0,61.0,88,69,44,29.73,29.60,16,4,19,0.01
2014-5-9,86.2,75.6,67.8,70.0,62.6,54.0,94,67,38,29.84,29.69,8,2,13,0.00
2014-5-10,94.0,76.4,55.3,66.0,59.1,52.0,93,60,32,29.83,29.62,14,4,19,0.00
2014-5-11,90.9,79.5,69.5,68.0,65.1,61.0,81,63,41,29.70,29.52,19,8,26,0.00
2014-5-12,88.8,75.3,59.1,74.0,67.7,56.0,95,78,56,29.87,29.60,17,6,21,0.85
2014-5-13,63.2,55.7,50.4,56.0,45.7,-99.9,93,74,52,30.25,29.84,10,-17,17,0.33
2014-5-14,73.2,59.2,46.1,49.0,42.7,33.0,94,61,24,30.28,30.13,16,2,22,0.07
2014-5-15,82.3,65.3,45.9,46.0,39.2,31.0,84,45,16,30.24,30.03,9,2,11,0.00
2014-5-16,87.9,74.7,62.0,46.0,40.1,35.0,47,30,16,30.04,29.84,17,6,23,0.00
2014-5-17,87.3,75.1,62.6,59.0,53.5,38.0,65,48,28,29.88,29.77,16,6,20,0.00
2014-5-18,85.5,73.6,62.9,63.0,59.1,57.0,86,62,41,29.96,29.84,15,6,21,0.00
2014-5-19,87.0,74.3,64.5,64.0,59.7,56.0,80,62,40,29.94,29.82,15,8,21,0.00
2014-5-20,86.4,75.0,65.6,63.0,60.5,58.0,80,62,42,29.96,29.85,15,6,19,0.00
2014-5-21,88.6,77.8,68.5,65.0,62.8,60.0,80,61,41,29.95,29.83,14,7,20,0.00
2014-5-22,85.3,77.2,68.8,68.0,65.4,61.0,84,68,54,29.96,29.86,13,5,17,0.00
2014-5-23,82.1,75.4,71.2,67.0,65.1,63.0,80,71,57,29.95,29.83,11,4,16,0.00
2014-5-24,82.1,74.5,70.9,72.0,68.2,65.0,92,81,69,29.94,29.78,10,4,15,0.03
2014-5-25,77.1,68.8,61.5,71.0,64.6,60.0,96,87,77,29.95,29.83,12,4,25,1.57
2014-5-26,74.7,67.1,60.3,67.0,62.5,58.0,95,85,71,30.03,29.82,21,4,33,0.09
2014-5-27,83.9,70.1,60.4,72.0,65.2,59.0,95,85,66,29.93,29.73,7,2,14,0.07
2014-5-28,81.4,73.9,66.6,68.0,65.3,63.0,97,76,57,29.86,29.78,11,2,15,0.05
2014-5-29,86.0,74.8,62.5,67.0,64.3,61.0,95,72,49,29.85,29.74,7,1,12,0.04
2014-5-30,91.5,77.4,63.8,69.0,65.5,62.0,93,70,39,29.81,29.70,8,1,11,0.02
2014-5-31,90.1,78.8,67.0,71.0,67.9,65.0,95,71,46,29.83,29.74,6,1,12,0.01
2014-6-1,89.5,79.0,67.7,73.0,68.7,66.0,95,72,49,29.84,29.73,8,2,13,0.01
2014-6-2,88.6,79.2,70.0,70.0,67.6,65.0,84,69,51,29.86,29.74,12,5,17,0.00
2014-6-3,89.2,78.4,69.1,70.0,68.5,67.0,93,73,52,29.91,29.79,9,3,14,0.00
2014-6-4,90.1,80.1,71.5,71.0,69.2,67.0,86,70,52,29.81,29.68,12,6,19,0.00
2014-6-5,89.6,80.5,72.9,72.0,70.0,68.0,85,71,55,29.75,29.67,14,6,19,0.00
2014-6-6,90.2,81.1,72.9,70.0,68.8,67.0,83,67,51,29.83,29.70,13,6,19,0.00
2014-6-7,90.8,82.0,73.1,70.0,68.3,67.0,83,64,49,29.84,29.70,14,6,22,0.00
2014-6-8,86.5,78.3,68.9,74.0,70.4,67.0,94,77,59,29.89,29.67,12,4,17,0.15
2014-6-9,83.0,75.2,61.9,72.0,67.8,60.0,95,78,59,29.81,29.62,16,3,19,0.17
2014-6-10,87.6,74.3,60.0,63.0,60.4,57.0,92,65,38,29.87,29.75,8,2,14,0.03
2014-6-11,94.9,80.0,63.2,70.0,65.4,60.0,90,64,37,29.82,29.63,16,3,18,0.00
2014-6-12,91.7,82.7,68.1,77.0,72.0,65.0,93,71,55,29.82,29.62,15,5,27,0.34
2014-6-13,89.0,77.3,65.8,74.0,69.2,65.0,96,78,58,29.90,29.77,7,2,10,0.03
2014-6-14,86.8,78.2,67.0,74.0,69.5,63.0,94,75,59,29.91,29.69,11,4,17,0.01
2014-6-15,90.6,82.0,74.4,73.0,69.5,67.0,82,67,50,29.81,29.71,14,7,18,0.01
2014-6-16,91.9,82.4,73.2,72.0,69.2,66.0,86,66,44,29.90,29.77,12,6,18,0.00
2014-6-17,90.5,82.2,76.2,72.0,69.9,66.0,82,68,47,29.89,29.77,13,7,21,0.00
2014-6-18,89.9,81.3,75.3,72.0,70.0,67.0,89,69,51,29.88,29.75,15,6,19,0.02
2014-6-19,86.6,80.6,74.8,72.0,69.0,66.0,83,69,52,29.92,29.84,11,5,17,0.00
2014-6-20,90.2,78.4,72.0,71.0,68.6,65.0,90,73,44,29.98,29.86,9,2,20,0.01
2014-6-21,87.2,79.6,72.8,72.0,68.3,65.0,89,70,50,29.94,29.79,9,3,14,0.00
2014-6-22,89.5,80.8,76.0,73.0,70.0,67.0,81,71,53,29.82,29.70,9,5,16,0.00
2014-6-23,90.2,80.2,73.7,73.0,71.0,66.0,87,74,57,29.88,29.71,16,3,17,0.00
2014-6-24,91.7,81.0,73.4,72.0,69.1,66.0,90,69,43,29.97,29.82,14,2,19,0.00
2014-6-25,91.5,75.5,68.4,74.0,66.6,-99.9,94,79,49,29.91,29.80,13,-20,17,0.32
2014-6-26,88.9,78.2,68.0,72.0,69.7,67.0,95,77,55,29.91,29.72,11,3,18,0.32
2014-6-27,90.5,80.8,74.8,74.0,70.5,68.0,83,72,53,29.79,29.65,17,7,22,0.00
2014-6-28,90.0,82.6,77.9,74.0,71.9,71.0,81,71,56,29.82,29.71,17,7,22,0.00
2014-6-29,93.1,84.2,77.0,74.0,71.5,70.0,80,67,49,29.89,29.79,15,7,21,0.00
2014-6-30,95.1,84.1,73.8,73.0,68.5,62.0,83,62,35,29.88,29.72,21,8,22,0.00
2014-7-1,94.3,84.1,72.7,72.0,66.9,63.0,85,59,37,29.87,29.74,14,6,20,0.00
2014-7-2,95.9,82.8,67.9,70.0,66.1,59.0,92,60,31,29.94,29.86,7,2,16,0.00
2014-7-3,95.8,81.9,70.1,69.0,66.7,62.0,88,62,34,30.04,29.93,9,2,17,0.00
2014-7-4,95.4,81.4,67.2,69.0,63.9,58.0,91,60,29,30.09,29.97,13,3,17,0.00
2014-7-5,93.3,80.9,67.0,70.0,66.0,63.0,90,63,38,30.09,29.93,10,3,15,0.00
2014-7-6,94.2,82.8,69.4,70.0,66.9,65.0,92,61,40,29.96,29.81,10,4,15,0.00
2014-7-7,97.1,85.9,75.7,68.0,62.3,57.0,71,48,27,29.91,29.80,13,5,19,0.00
2014-7-8,96.0,85.1,71.5,69.0,66.0,61.0,88,56,32,29.92,29.84,11,5,17,0.00
2014-7-9,95.7,84.9,73.3,69.0,65.4,58.0,81,55,32,29.95,29.82,15,5,18,0.00
2014-7-10,93.9,82.7,69.4,69.0,65.5,61.0,85,58,37,29.95,29.82,15,5,21,0.00
2014-7-11,92.8,80.7,72.1,69.0,64.8,58.0,79,61,33,30.02,29.93,15,5,21,0.00
2014-7-12,96.0,83.0,65.9,67.0,60.7,52.0,88,52,24,30.07,29.91,12,3,17,0.00
2014-7-13,98.7,86.6,72.6,69.0,64.4,60.0,85,51,28,30.00,29.85,11,3,14,0.00
2014-7-14,101.1,88.4,75.2,69.0,64.5,60.0,75,48,26,29.93,29.76,8,2,13,0.00
2014-7-15,88.5,78.0,69.7,72.0,67.8,61.0,95,72,46,29.93,29.83,9,1,12,0.40
2014-7-16,92.6,79.3,69.5,75.0,69.2,64.0,97,75,42,29.93,29.73,12,2,18,0.08
2014-7-17,84.5,75.9,72.5,76.0,71.8,69.0,95,86,71,29.82,29.68,7,1,11,0.16
2014-7-18,75.7,73.7,71.4,74.0,70.0,68.0,95,88,79,29.91,29.78,5,1,9,0.02
2014-7-19,88.3,77.6,70.6,73.0,69.8,67.0,90,77,59,29.94,29.82,5,1,11,0.02
2014-7-20,96.7,83.2,70.4,75.0,71.7,68.0,94,71,43,29.91,29.76,7,2,14,0.00
2014-7-21,97.5,86.2,75.0,75.0,72.1,69.0,92,65,42,29.91,29.80,8,2,13,0.00
2014-7-22,97.8,85.8,73.0,73.0,69.3,66.0,91,61,37,29.94,29.86,10,2,11,0.00
2014-7-23,98.3,85.5,71.1,72.0,68.0,64.0,88,58,34,29.99,29.85,7,1,12,0.00
2014-7-24,97.1,85.2,73.7,71.0,67.9,64.0,82,58,36,29.94,29.81,10,2,14,0.00
2014-7-25,98.3,85.1,71.2,71.0,66.6,63.0,85,57,32,29.93,29.78,8,2,14,0.00
2014-7-26,98.7,87.2,74.2,71.0,67.8,64.0,80,55,34,29.91,29.77,16,4,17,0.00
2014-7-27,100.3,87.4,72.4,72.0,67.3,62.0,83,55,29,29.93,29.83,10,3,17,0.00
2014-7-28,100.7,88.6,74.9,70.0,66.1,59.0,78,50,26,30.00,29.88,10,3,16,0.00
2014-7-29,100.4,85.1,73.6,72.0,68.3,63.0,84,60,29,29.99,29.87,10,2,19,0.00
2014-7-30,99.1,86.0,71.3,68.0,60.9,55.0,71,46,23,29.93,29.75,12,4,18,0.00
2014-7-31,92.8,83.0,74.9,71.0,67.8,60.0,83,61,43,29.91,29.80,10,3,15,0.00
2014-8-1,90.8,79.6,70.2,66.0,63.7,61.0,80,60,39,29.95,29.84,9,2,16,0.00
2014-8-2,90.9,79.5,67.1,67.0,63.2,60.0,88,60,37,30.00,29.88,8,2,14,0.00
2014-8-3,93.3,80.5,65.4,67.0,62.8,60.0,85,58,34,30.00,29.86,8,2,15,0.00
2014-8-4,96.5,82.8,68.2,70.0,64.8,61.0,83,57,31,29.96,29.82,8,2,13,0.00
2014-8-5,97.8,84.6,69.9,69.0,65.1,61.0,86,55,32,29.97,29.84,7,1,15,0.00
2014-8-6,99.6,87.5,73.9,70.0,66.7,62.0,81,52,32,29.92,29.75,8,3,14,0.00
2014-8-7,102.2,89.5,78.0,72.0,66.9,61.0,75,50,27,29.83,29.67,10,4,16,0.00
2014-8-8,102.2,89.9,76.6,72.0,66.6,60.0,81,50,25,29.84,29.70,10,4,15,0.00
2014-8-9,98.6,87.8,73.8,70.0,65.2,60.0,76,49,31,29.91,29.76,11,4,17,0.00
2014-8-10,101.2,88.7,74.9,71.0,65.6,60.0,79,49,27,29.93,29.77,10,3,12,0.00
2014-8-11,95.3,81.4,74.3,73.0,68.6,67.0,90,66,45,29.96,29.87,14,2,20,0.03
2014-8-12,97.0,79.9,69.9,76.0,69.5,63.0,95,74,35,30.00,29.88,9,1,15,0.07
2014-8-13,97.1,81.6,64.2,69.0,62.4,59.0,96,59,29,30.01,29.88,9,1,15,0.07
2014-8-14,98.8,83.4,66.0,62.0,59.7,58.0,78,48,28,29.95,29.80,7,1,17,0.00
2014-8-15,99.1,85.0,69.3,70.0,62.8,58.0,73,50,30,29.91,29.72,9,2,15,0.00
2014-8-16,100.4,89.6,78.5,72.0,65.3,58.0,75,48,25,29.84,29.71,13,4,17,0.00
2014-8-17,94.7,82.1,71.3,74.0,70.7,66.0,92,70,42,29.88,29.76,9,2,16,0.07
2014-8-18,91.3,78.2,71.6,74.0,70.9,67.0,94,79,54,29.86,29.71,9,2,13,0.34
2014-8-19,88.9,78.2,70.2,71.0,69.0,65.0,94,75,52,29.86,29.72,10,3,17,0.37
2014-8-20,95.7,85.0,75.3,71.0,67.6,63.0,84,58,36,29.87,29.74,14,6,20,0.00
2014-8-21,97.6,87.2,77.9,73.0,67.8,62.0,80,56,31,29.91,29.81,18,7,21,0.00
2014-8-22,98.6,86.8,75.3,73.0,64.4,54.0,82,52,23,29.94,29.81,12,6,21,0.00
2014-8-23,97.1,85.4,72.4,69.0,65.0,62.0,82,52,34,29.90,29.75,12,4,16,0.00
2014-8-24,99.6,86.7,72.9,70.0,65.7,58.0,85,53,26,29.85,29.71,10,3,13,0.00
2014-8-25,101.0,88.3,75.1,70.0,64.4,57.0,80,49,25,29.85,29.72,9,2,13,0.00
2014-8-26,100.6,86.7,73.5,69.0,65.3,62.0,72,51,30,29.91,29.77,9,1,13,0.00
2014-8-27,96.4,85.0,73.1,71.0,66.8,61.0,86,57,36,29.93,29.80,7,1,13,0.00
2014-8-28,98.0,84.3,69.9,71.0,65.4,61.0,80,55,32,29.86,29.68,14,2,17,0.00
2014-8-29,98.1,84.7,76.0,72.0,69.6,65.0,84,63,36,29.82,29.67,10,3,17,0.00
2014-8-30,98.7,83.0,70.7,72.0,69.0,66.0,89,65,35,29.84,29.72,9,1,20,0.00
2014-8-31,96.5,84.6,72.4,71.0,69.3,66.0,86,62,38,29.86,29.73,13,4,19,0.00
2014-9-1,98.0,86.0,75.5,72.0,68.8,65.0,82,59,36,29.81,29.70,16,6,18,0.00
2014-9-2,97.6,85.8,76.0,71.0,69.7,67.0,82,61,37,29.84,29.72,14,6,19,0.00
2014-9-3,94.0,81.4,73.8,72.0,69.2,65.0,86,67,44,29.88,29.79,17,5,27,0.00
2014-9-4,91.7,80.7,71.6,73.0,69.9,67.0,92,71,46,29.93,29.84,12,4,20,0.08
2014-9-5,95.4,82.9,72.4,72.0,69.1,64.0,92,66,38,29.97,29.81,16,3,32,0.08
2014-9-6,94.1,81.7,71.4,73.0,69.0,66.0,93,68,41,29.97,29.83,10,2,18,0.11
2014-9-7,88.7,77.2,72.6,72.0,69.9,67.0,92,79,53,29.98,29.87,6,1,10,0.01
2014-9-8,93.1,80.3,67.8,71.0,67.8,66.0,95,69,44,29.95,29.81,7,1,15,0.01
2014-9-9,95.0,84.9,74.6,71.0,68.1,66.0,81,59,41,29.88,29.71,11,4,19,0.00
2014-9-10,98.1,86.6,75.7,71.0,69.3,66.0,81,58,39,29.75,29.64,14,6,17,0.00
2014-9-11,97.5,84.3,73.5,73.0,70.9,67.0,91,66,38,29.85,29.71,12,3,17,0.20
2014-9-12,85.3,74.7,61.4,75.0,68.8,59.0,95,83,63,30.09,29.85,14,3,17,0.14
2014-9-13,64.7,60.2,56.2,62.0,57.5,54.0,95,90,81,30.18,30.08,11,3,12,0.04
2014-9-14,82.8,71.6,64.0,67.0,63.5,60.0,91,77,57,30.16,30.01,5,1,9,0.04
2014-9-15,88.5,76.3,67.5,70.0,67.1,65.0,92,75,51,30.06,29.94,7,1,11,0.00
2014-9-16,93.1,79.3,70.3,73.0,70.0,65.0,94,75,41,30.01,29.83,8,1,14,0.09
2014-9-17,91.4,80.1,72.5,74.0,72.3,71.0,97,79,52,29.90,29.72,9,1,16,0.10
2014-9-18,92.3,77.0,70.5,74.0,70.8,69.0,97,83,46,29.84,29.68,9,2,16,0.11
2014-9-19,75.1,72.3,69.9,74.0,71.2,69.0,97,96,93,29.85,29.77,4,0,7,0.67
2014-9-20,87.2,77.4,71.1,73.0,71.3,70.0,98,83,60,29.91,29.81,7,1,10,0.01
2014-9-21,89.9,78.6,71.2,73.0,68.9,66.0,96,74,48,30.00,29.89,6,1,11,0.01
2014-9-22,89.9,77.7,65.3,69.0,66.5,64.0,95,71,45,30.07,29.94,5,1,9,0.00
2014-9-23,87.4,75.8,65.3,67.0,61.4,57.0,82,63,41,30.07,29.94,8,1,13,0.00
2014-9-24,85.1,71.3,57.5,59.0,54.4,46.0,94,60,27,30.08,29.98,7,1,11,0.00
2014-9-25,86.1,71.1,56.9,65.0,58.7,53.0,90,67,41,30.09,29.98,7,1,15,0.00
2014-9-26,82.6,72.5,62.8,66.0,63.8,60.0,94,75,55,30.04,29.92,8,1,11,0.00
2014-9-27,76.9,70.2,66.1,68.0,65.9,63.0,95,87,63,29.98,29.90,4,0,9,0.16
2014-9-28,85.4,71.9,60.2,67.0,62.3,59.0,96,75,46,30.00,29.88,9,1,12,0.17
2014-9-29,88.1,73.9,60.1,67.0,60.9,58.0,94,67,40,29.94,29.79,7,1,10,0.00
2014-9-30,90.9,76.4,60.4,67.0,62.4,58.0,92,65,39,29.81,29.65,8,2,14,0.00
2014-10-1,92.8,81.3,70.3,71.0,68.8,66.0,92,68,46,29.72,29.61,10,4,16,0.00
2014-10-2,93.7,82.5,73.1,73.0,69.1,56.0,87,65,44,29.86,29.66,14,4,19,0.01
2014-10-3,85.6,71.3,54.3,57.0,50.3,41.0,91,52,23,30.14,29.87,10,2,14,0.01
2014-10-4,82.7,67.7,49.6,53.0,48.9,45.0,86,54,33,30.16,29.87,14,3,17,0.00
2014-10-5,87.0,74.9,63.8,66.0,62.0,54.0,88,66,46,29.87,29.67,12,4,20,0.00
2014-10-6,92.0,79.4,68.6,70.0,66.8,63.0,92,68,40,29.80,29.70,8,3,16,0.00
2014-10-7,96.2,82.1,70.1,70.0,64.7,55.0,91,60,26,29.85,29.75,12,4,15,0.00
2014-10-8,90.3,80.0,72.0,70.0,65.3,59.0,87,63,37,29.91,29.80,14,4,19,0.00
2014-10-9,91.4,81.0,73.4,70.0,66.7,63.0,83,64,40,29.87,29.73,14,6,22,0.00
2014-10-10,91.5,81.7,74.9,69.0,67.4,65.0,79,63,43,29.82,29.71,12,5,19,0.00
2014-10-11,78.9,60.5,55.2,70.0,56.0,53.0,95,85,69,30.04,29.79,9,2,19,0.19
2014-10-12,81.7,69.1,60.2,70.0,62.7,56.0,88,80,63,29.98,29.59,13,3,20,0.04
2014-10-13,76.7,67.6,56.6,71.0,54.6,44.0,92,65,42,30.01,29.52,19,4,29,0.01
2014-10-14,77.8,62.9,51.1,49.0,43.3,40.0,72,52,28,30.15,29.98,10,2,13,0.01
2014-10-15,86.2,65.8,48.8,53.0,45.8,42.0,83,54,22,30.08,29.92,6,1,9,0.00
2014-10-16,87.1,69.5,50.4,51.0,46.9,43.0,80,48,25,29.93,29.77,11,3,15,0.01
2014-10-17,90.1,72.5,55.8,61.0,53.5,45.0,79,54,29,29.87,29.77,7,1,13,0.01
2014-10-18,84.0,69.4,57.0,66.0,60.0,55.0,93,74,44,29.99,29.86,3,0,10,0.00
2014-10-19,80.6,70.3,61.9,66.0,61.5,59.0,93,75,51,30.02,29.91,7,1,11,0.00
2014-10-20,81.6,68.1,57.3,64.0,59.2,55.0,96,75,41,30.02,29.90,5,1,9,0.00
2014-10-21,80.1,67.5,54.8,62.0,56.7,50.0,95,71,46,30.02,29.90,7,1,10,0.00
2014-10-22,81.3,69.5,57.7,60.0,56.0,50.0,86,64,40,30.05,29.95,9,1,15,0.00
2014-10-23,82.4,71.9,64.7,64.0,62.2,59.0,92,73,53,30.06,29.95,7,1,11,0.00
2014-10-24,86.0,71.2,58.8,63.0,60.1,57.0,95,71,44,30.09,29.98,7,1,10,0.00
2014-10-25,87.8,72.3,58.9,64.0,58.9,56.0,91,66,38,30.09,29.97,8,2,11,0.00
2014-10-26,85.6,72.1,58.1,61.0,56.3,53.0,90,60,34,29.98,29.79,13,3,19,0.00
2014-10-27,84.8,72.8,64.0,63.0,60.2,53.0,85,66,46,29.80,29.70,11,4,17,0.00
2014-10-28,83.3,72.8,65.8,65.0,61.4,57.0,89,69,47,30.00,29.78,5,1,9,0.00
2014-10-29,77.1,67.0,62.9,61.0,57.1,57.0,81,69,58,30.11,29.99,4,0,10,0.01
2014-10-30,83.0,68.8,59.0,66.0,60.9,56.0,92,77,51,30.07,29.94,6,1,9,0.01
2014-10-31,72.9,64.3,52.4,63.0,48.7,39.0,93,61,31,30.27,30.03,10,2,17,0.01
2014-11-1,68.8,54.1,40.2,44.0,41.3,38.0,93,65,36,30.34,30.18,10,2,12,0.01
2014-11-2,71.3,61.7,47.4,56.0,51.4,41.0,87,70,54,30.23,30.06,15,5,21,0.00
2014-11-3,72.9,68.8,64.5,63.0,60.4,55.0,82,75,69,30.06,29.96,13,6,20,0.00
2014-11-4,73.1,66.0,55.3,64.0,60.6,54.0,95,83,71,30.14,29.91,10,4,17,0.56
2014-11-5,55.3,54.3,52.2,54.0,53.1,51.0,96,95,95,30.20,30.05,5,1,11,0.32
2014-11-6,63.3,56.9,52.6,54.0,50.3,45.0,96,80,55,30.32,30.19,5,0,6,0.11
2014-11-7,70.3,58.6,50.4,51.0,46.7,40.0,94,68,37,30.25,29.98,6,1,9,0.05
2014-11-8,72.2,57.6,46.9,53.0,47.0,43.0,93,70,44,30.16,29.97,12,2,16,0.02
2014-11-9,76.5,57.9,40.1,48.0,43.0,38.0,93,63,28,30.14,29.84,9,2,15,0.01
2014-11-10,77.9,65.5,53.0,56.0,52.0,43.0,78,63,45,29.84,29.62,14,6,20,0.01
2014-11-11,65.8,48.6,38.1,56.0,36.0,28.0,85,62,48,30.20,29.68,14,4,22,0.01
2014-11-12,46.6,38.0,33.1,28.0,21.8,15.0,69,53,40,30.46,30.21,15,6,17,0.01
2014-11-13,38.9,33.8,30.3,17.0,12.1,8.0,51,41,32,30.57,30.45,10,4,16,0.08
2014-11-14,43.5,36.6,31.4,27.0,18.8,12.0,68,49,40,30.46,30.22,8,2,10,0.04
2014-11-15,55.3,46.6,34.1,49.0,38.5,25.0,89,73,60,30.22,29.95,6,2,14,0.00
2014-11-16,52.2,44.1,30.3,48.0,41.1,26.0,92,89,82,30.27,29.86,12,3,21,0.00
2014-11-17,49.1,35.4,25.4,26.0,21.1,12.0,85,61,23,30.46,30.26,12,2,16,0.00
2014-11-18,56.0,40.9,26.3,28.0,21.5,17.0,88,52,23,30.51,30.33,9,2,14,0.00
2014-11-19,70.7,52.1,32.5,43.0,35.5,20.0,86,56,30,30.33,30.09,11,3,17,0.00
2014-11-20,72.9,57.4,42.5,57.0,50.3,40.0,95,79,53,30.09,29.91,13,3,21,0.00
2014-11-21,77.0,64.9,54.4,64.0,58.8,53.0,96,82,57,30.02,29.90,12,3,19,0.04
2014-11-22,67.2,62.6,56.7,63.0,60.3,55.0,96,92,82,29.94,29.65,11,3,22,0.84
2014-11-23,78.1,61.9,46.8,54.0,45.0,37.0,97,61,25,29.84,29.48,16,3,23,0.01
2014-11-24,60.7,48.3,37.6,39.0,32.8,23.0,85,59,26,30.16,29.84,5,1,9,0.00
2014-11-25,65.0,46.4,32.1,34.0,29.9,26.0,89,58,26,30.34,30.15,7,1,11,0.00
2014-11-26,72.5,52.7,36.3,37.0,32.1,27.0,75,49,24,30.33,30.12,8,1,13,0.00
2014-11-27,61.5,47.0,34.4,38.0,34.3,32.0,93,65,36,30.50,30.32,7,1,9,0.00
2014-11-28,71.1,55.4,37.6,52.0,45.1,33.0,94,70,43,30.32,30.01,13,3,21,0.00
2014-11-29,75.3,63.8,50.8,60.0,53.9,46.0,92,72,47,30.01,29.85,11,5,19,0.00
2014-11-30,74.4,65.8,54.7,60.0,58.0,52.0,95,77,58,30.03,29.87,12,4,19,0.00
2014-12-1,61.8,43.4,37.1,60.0,32.8,21.0,94,67,51,30.43,30.03,9,3,16,0.00
2014-12-2,51.2,44.3,37.2,48.0,33.1,21.0,88,65,51,30.42,30.14,6,1,9,0.00
2014-12-3,64.9,57.7,51.0,58.0,53.5,48.0,92,86,76,30.13,30.03,10,2,16,0.00
2014-12-4,72.0,63.4,58.3,61.0,58.7,56.0,95,85,63,30.10,29.94,12,2,17,0.01
2014-12-5,78.4,67.1,57.5,63.0,60.4,51.0,96,81,53,30.15,29.92,8,2,13,0.01
2014-12-6,67.4,56.6,47.8,54.0,49.6,45.0,93,78,56,30.34,30.16,8,1,12,0.00
2014-12-7,52.7,50.1,45.3,48.0,46.6,43.0,93,87,81,30.35,30.20,4,0,6,0.00
2014-12-8,67.4,53.5,42.6,53.0,47.6,41.0,95,82,58,30.35,30.21,6,0,9,0.00
2014-12-9,68.7,53.7,40.9,54.0,47.2,39.0,96,80,56,30.33,30.16,3,0,8,0.00
2014-12-10,65.0,57.6,51.7,55.0,50.5,44.0,90,78,56,30.19,30.06,8,1,12,0.00
2014-12-11,62.0,59.2,57.1,58.0,57.0,55.0,96,92,86,30.14,30.06,10,1,15,0.01
2014-12-12,68.9,62.4,57.5,60.0,57.9,55.0,94,85,72,30.20,30.09,9,3,14,0.00
2014-12-13,68.9,59.7,51.2,59.0,55.3,50.0,96,85,68,30.14,29.95,9,2,13,0.01
2014-12-14,68.0,63.8,59.8,61.0,58.4,55.0,88,83,75,29.95,29.76,12,5,20,0.00
2014-12-15,70.1,56.8,40.2,57.0,41.9,31.0,96,64,24,30.14,29.82,5,1,11,0.01
2014-12-16,62.3,48.1,34.3,38.0,34.7,31.0,87,62,38,30.34,30.15,7,1,10,0.00
2014-12-17,52.6,48.4,45.7,47.0,41.8,37.0,96,79,57,30.21,29.99,5,1,11,0.02
2014-12-18,68.8,55.2,47.9,58.0,51.7,47.0,97,89,59,30.12,29.97,9,1,11,0.01
2014-12-19,53.2,49.1,45.9,48.0,45.8,43.0,95,89,79,30.17,30.03,5,1,9,0.19
2014-12-20,54.0,47.2,38.6,45.0,42.3,37.0,93,83,69,30.22,30.09,7,1,11,0.00
2014-12-21,59.5,49.7,38.8,50.0,45.6,37.0,95,86,70,30.13,29.77,10,2,15,0.00
2014-12-22,72.5,59.8,52.6,52.0,47.0,42.0,89,66,35,29.75,29.55,9,2,15,0.00
2014-12-23,53.5,45.8,38.4,44.0,39.4,33.0,92,79,63,29.99,29.58,10,2,16,0.24
2014-12-24,54.9,43.7,36.6,34.0,31.0,26.0,80,62,38,30.17,29.99,10,2,16,0.00
2014-12-25,63.8,49.8,30.1,45.0,29.3,25.0,84,49,27,30.03,29.86,17,5,25,0.00
2014-12-26,70.6,60.8,52.2,56.0,52.7,45.0,94,75,58,29.88,29.77,11,4,16,0.00
2014-12-27,56.4,45.5,36.5,55.0,39.2,29.0,95,79,68,30.29,29.88,11,4,16,0.00
2014-12-28,49.4,38.2,33.2,33.0,29.5,25.0,91,73,42,30.30,30.12,10,1,12,0.10
2014-12-29,68.0,45.8,27.4,46.0,36.6,25.0,94,73,37,30.15,29.98,6,1,11,0.00
2014-12-30,46.7,39.7,34.3,41.0,37.5,33.0,96,91,81,30.47,30.12,7,1,13,0.02
2014-12-31,37.3,30.7,27.2,33.0,26.2,24.0,90,83,78,30.56,30.38,7,2,12,0.00
2015-1-1,35.7,33.6,31.5,34.0,30.8,26.0,95,89,78,30.38,30.14,4,1,6,0.03
2015-1-2,37.3,35.8,34.4,36.0,34.8,33.0,96,96,95,30.19,29.95,5,1,8,0.24